sensor_id;sensor_type;location;lat;lon;timestamp;P1;durP1;ratioP1;P2;durP2;ratioP2
67798;SDS011;54596;43.216;27.904;2023-04-01T00:01:40;95.80;;;77.03;;
67798;SDS011;54596;43.216;27.904;2023-04-01T00:04:06;89.65;;;73.28;;
67798;SDS011;54596;43.216;27.904;2023-04-01T00:06:32;86.88;;;68.72;;
67798;SDS011;54596;43.216;27.904;2023-04-01T00:08:59;81.47;;;65.35;;
67798;SDS011;54596;43.216;27.904;2023-04-01T00:11:24;87.88;;;70.28;;
67798;SDS011;54596;43.216;27.904;2023-04-01T00:13:52;92.80;;;71.80;;
67798;SDS011;54596;43.216;27.904;2023-04-01T00:16:18;89.22;;;72.38;;
67798;SDS011;54596;43.216;27.904;2023-04-01T00:18:43;95.80;;;74.20;;
67798;SDS011;54596;43.216;27.904;2023-04-01T00:21:09;86.47;;;66.85;;
67798;SDS011;54596;43.216;27.904;2023-04-01T00:23:35;86.05;;;66.90;;
67798;SDS011;54596;43.216;27.904;2023-04-01T00:26:02;91.93;;;68.65;;
67798;SDS011;54596;43.216;27.904;2023-04-01T00:28:28;94.38;;;70.35;;
67798;SDS011;54596;43.216;27.904;2023-04-01T00:30:54;76.88;;;62.08;;
67798;SDS011;54596;43.216;27.904;2023-04-01T00:33:21;70.97;;;53.75;;
67798;SDS011;54596;43.216;27.904;2023-04-01T00:35:47;63.45;;;49.45;;
67798;SDS011;54596;43.216;27.904;2023-04-01T00:38:12;67.38;;;48.83;;
67798;SDS011;54596;43.216;27.904;2023-04-01T00:40:43;64.70;;;45.25;;
67798;SDS011;54596;43.216;27.904;2023-04-01T00:43:17;61.75;;;43.78;;
67798;SDS011;54596;43.216;27.904;2023-04-01T00:45:45;54.40;;;37.38;;
67798;SDS011;54596;43.216;27.904;2023-04-01T00:50:42;47.92;;;35.17;;
67798;SDS011;54596;43.216;27.904;2023-04-01T00:53:14;47.05;;;33.22;;
67798;SDS011;54596;43.216;27.904;2023-04-01T00:55:42;41.25;;;31.75;;
67798;SDS011;54596;43.216;27.904;2023-04-01T00:58:14;44.83;;;31.95;;
67798;SDS011;54596;43.216;27.904;2023-04-01T01:00:42;42.55;;;31.83;;
67798;SDS011;54596;43.216;27.904;2023-04-01T01:03:08;42.80;;;31.40;;
67798;SDS011;54596;43.216;27.904;2023-04-01T01:10:52;40.97;;;30.80;;
67798;SDS011;54596;43.216;27.904;2023-04-01T01:27:17;54.10;;;33.70;;
67798;SDS011;54596;43.216;27.904;2023-04-01T01:32:33;61.70;;;36.13;;
67798;SDS011;54596;43.216;27.904;2023-04-01T01:38:17;57.47;;;41.03;;
67798;SDS011;54596;43.216;27.904;2023-04-01T01:40:44;52.42;;;39.83;;
67798;SDS011;54596;43.216;27.904;2023-04-01T01:43:14;57.25;;;40.28;;
67798;SDS011;54596;43.216;27.904;2023-04-01T01:45:44;51.95;;;37.65;;
67798;SDS011;54596;43.216;27.904;2023-04-01T01:48:13;48.90;;;37.67;;
67798;SDS011;54596;43.216;27.904;2023-04-01T01:50:41;44.05;;;34.83;;
67798;SDS011;54596;43.216;27.904;2023-04-01T01:53:11;45.33;;;33.60;;
67798;SDS011;54596;43.216;27.904;2023-04-01T01:55:43;49.10;;;34.15;;
67798;SDS011;54596;43.216;27.904;2023-04-01T01:58:14;47.53;;;35.20;;
67798;SDS011;54596;43.216;27.904;2023-04-01T02:00:48;45.47;;;35.58;;
67798;SDS011;54596;43.216;27.904;2023-04-01T02:03:17;47.95;;;34.55;;
67798;SDS011;54596;43.216;27.904;2023-04-01T02:05:46;47.00;;;33.15;;
67798;SDS011;54596;43.216;27.904;2023-04-01T02:08:16;48.47;;;33.00;;
67798;SDS011;54596;43.216;27.904;2023-04-01T02:10:52;51.53;;;33.60;;
67798;SDS011;54596;43.216;27.904;2023-04-01T02:13:25;47.75;;;32.00;;
67798;SDS011;54596;43.216;27.904;2023-04-01T02:15:56;51.63;;;31.25;;
67798;SDS011;54596;43.216;27.904;2023-04-01T02:18:26;45.55;;;30.55;;
67798;SDS011;54596;43.216;27.904;2023-04-01T02:20:55;38.97;;;28.80;;
67798;SDS011;54596;43.216;27.904;2023-04-01T02:23:24;40.47;;;29.20;;
67798;SDS011;54596;43.216;27.904;2023-04-01T02:25:52;39.50;;;30.02;;
67798;SDS011;54596;43.216;27.904;2023-04-01T02:28:20;41.55;;;30.13;;
67798;SDS011;54596;43.216;27.904;2023-04-01T02:30:46;43.92;;;31.00;;
67798;SDS011;54596;43.216;27.904;2023-04-01T02:33:13;36.92;;;29.48;;
67798;SDS011;54596;43.216;27.904;2023-04-01T02:35:40;41.53;;;30.02;;
67798;SDS011;54596;43.216;27.904;2023-04-01T02:38:06;43.55;;;30.80;;
67798;SDS011;54596;43.216;27.904;2023-04-01T02:40:45;44.20;;;31.15;;
67798;SDS011;54596;43.216;27.904;2023-04-01T02:43:13;38.13;;;29.58;;
67798;SDS011;54596;43.216;27.904;2023-04-01T02:45:39;38.42;;;29.40;;
67798;SDS011;54596;43.216;27.904;2023-04-01T02:48:05;39.42;;;28.85;;
67798;SDS011;54596;43.216;27.904;2023-04-01T02:50:33;43.03;;;29.75;;
67798;SDS011;54596;43.216;27.904;2023-04-01T02:52:59;39.38;;;28.85;;
67798;SDS011;54596;43.216;27.904;2023-04-01T02:55:27;43.17;;;29.38;;
67798;SDS011;54596;43.216;27.904;2023-04-01T02:57:56;47.97;;;29.23;;
67798;SDS011;54596;43.216;27.904;2023-04-01T03:00:21;46.78;;;28.85;;
67798;SDS011;54596;43.216;27.904;2023-04-01T03:02:47;46.15;;;29.02;;
67798;SDS011;54596;43.216;27.904;2023-04-01T03:05:12;48.63;;;30.08;;
67798;SDS011;54596;43.216;27.904;2023-04-01T03:07:38;48.25;;;31.77;;
67798;SDS011;54596;43.216;27.904;2023-04-01T03:10:04;46.55;;;30.52;;
67798;SDS011;54596;43.216;27.904;2023-04-01T03:12:30;47.08;;;30.10;;
67798;SDS011;54596;43.216;27.904;2023-04-01T03:14:56;43.80;;;29.15;;
67798;SDS011;54596;43.216;27.904;2023-04-01T03:17:21;45.95;;;29.13;;
67798;SDS011;54596;43.216;27.904;2023-04-01T03:19:47;45.40;;;28.98;;
67798;SDS011;54596;43.216;27.904;2023-04-01T03:22:12;46.40;;;32.35;;
67798;SDS011;54596;43.216;27.904;2023-04-01T03:24:39;45.33;;;33.30;;
67798;SDS011;54596;43.216;27.904;2023-04-01T03:27:06;47.25;;;31.38;;
67798;SDS011;54596;43.216;27.904;2023-04-01T03:29:32;47.50;;;29.55;;
67798;SDS011;54596;43.216;27.904;2023-04-01T03:31:57;49.40;;;32.95;;
67798;SDS011;54596;43.216;27.904;2023-04-01T03:34:24;47.88;;;30.70;;
67798;SDS011;54596;43.216;27.904;2023-04-01T03:36:50;47.33;;;32.20;;
67798;SDS011;54596;43.216;27.904;2023-04-01T03:39:16;53.63;;;31.73;;
67798;SDS011;54596;43.216;27.904;2023-04-01T03:41:44;48.30;;;31.90;;
67798;SDS011;54596;43.216;27.904;2023-04-01T03:44:10;52.92;;;34.60;;
67798;SDS011;54596;43.216;27.904;2023-04-01T03:46:36;53.85;;;34.60;;
67798;SDS011;54596;43.216;27.904;2023-04-01T03:49:02;58.58;;;37.75;;
67798;SDS011;54596;43.216;27.904;2023-04-01T03:51:28;44.03;;;30.95;;
67798;SDS011;54596;43.216;27.904;2023-04-01T03:53:55;47.10;;;35.50;;
67798;SDS011;54596;43.216;27.904;2023-04-01T03:56:21;43.17;;;31.33;;
67798;SDS011;54596;43.216;27.904;2023-04-01T03:58:48;47.05;;;30.48;;
67798;SDS011;54596;43.216;27.904;2023-04-01T04:01:15;55.08;;;31.38;;
67798;SDS011;54596;43.216;27.904;2023-04-01T04:03:43;56.33;;;31.15;;
67798;SDS011;54596;43.216;27.904;2023-04-01T04:06:12;48.38;;;30.48;;
67798;SDS011;54596;43.216;27.904;2023-04-01T04:08:39;48.78;;;31.35;;
67798;SDS011;54596;43.216;27.904;2023-04-01T04:11:04;54.78;;;29.58;;
67798;SDS011;54596;43.216;27.904;2023-04-01T04:13:30;42.40;;;26.48;;
67798;SDS011;54596;43.216;27.904;2023-04-01T04:15:55;39.15;;;24.25;;
67798;SDS011;54596;43.216;27.904;2023-04-01T04:18:21;42.22;;;25.73;;
67798;SDS011;54596;43.216;27.904;2023-04-01T04:20:46;34.28;;;21.67;;
67798;SDS011;54596;43.216;27.904;2023-04-01T04:23:16;57.00;;;29.60;;
67798;SDS011;54596;43.216;27.904;2023-04-01T04:25:41;37.67;;;21.35;;
67798;SDS011;54596;43.216;27.904;2023-04-01T04:28:22;35.65;;;20.23;;
67798;SDS011;54596;43.216;27.904;2023-04-01T04:30:50;45.88;;;31.45;;
67798;SDS011;54596;43.216;27.904;2023-04-01T04:33:16;46.70;;;31.90;;
67798;SDS011;54596;43.216;27.904;2023-04-01T04:35:41;38.28;;;21.67;;
67798;SDS011;54596;43.216;27.904;2023-04-01T04:38:07;35.25;;;19.58;;
67798;SDS011;54596;43.216;27.904;2023-04-01T04:40:32;43.88;;;24.60;;
67798;SDS011;54596;43.216;27.904;2023-04-01T04:42:58;55.90;;;26.15;;
67798;SDS011;54596;43.216;27.904;2023-04-01T04:45:23;51.70;;;22.42;;
67798;SDS011;54596;43.216;27.904;2023-04-01T04:47:49;76.10;;;26.02;;
67798;SDS011;54596;43.216;27.904;2023-04-01T04:50:15;60.60;;;25.92;;
67798;SDS011;54596;43.216;27.904;2023-04-01T04:52:42;54.42;;;22.90;;
67798;SDS011;54596;43.216;27.904;2023-04-01T04:55:10;59.63;;;24.48;;
67798;SDS011;54596;43.216;27.904;2023-04-01T04:57:36;66.05;;;27.00;;
67798;SDS011;54596;43.216;27.904;2023-04-01T05:00:01;64.50;;;25.80;;
67798;SDS011;54596;43.216;27.904;2023-04-01T05:02:28;70.30;;;27.58;;
67798;SDS011;54596;43.216;27.904;2023-04-01T05:04:54;69.82;;;28.95;;
67798;SDS011;54596;43.216;27.904;2023-04-01T05:07:19;54.90;;;23.08;;
67798;SDS011;54596;43.216;27.904;2023-04-01T05:09:45;64.25;;;29.40;;
67798;SDS011;54596;43.216;27.904;2023-04-01T05:12:12;34.55;;;15.57;;
67798;SDS011;54596;43.216;27.904;2023-04-01T05:14:38;40.00;;;16.90;;
67798;SDS011;54596;43.216;27.904;2023-04-01T05:17:04;31.83;;;12.43;;
67798;SDS011;54596;43.216;27.904;2023-04-01T05:19:33;24.92;;;10.93;;
67798;SDS011;54596;43.216;27.904;2023-04-01T05:21:58;59.95;;;19.88;;
67798;SDS011;54596;43.216;27.904;2023-04-01T05:24:24;75.00;;;18.85;;
67798;SDS011;54596;43.216;27.904;2023-04-01T05:26:49;31.08;;;10.55;;
67798;SDS011;54596;43.216;27.904;2023-04-01T05:29:15;20.85;;;9.55;;
67798;SDS011;54596;43.216;27.904;2023-04-01T05:31:40;30.38;;;11.02;;
67798;SDS011;54596;43.216;27.904;2023-04-01T05:34:06;40.47;;;12.77;;
67798;SDS011;54596;43.216;27.904;2023-04-01T05:36:31;47.28;;;17.17;;
67798;SDS011;54596;43.216;27.904;2023-04-01T05:38:57;62.45;;;21.00;;
67798;SDS011;54596;43.216;27.904;2023-04-01T05:41:22;42.58;;;14.70;;
67798;SDS011;54596;43.216;27.904;2023-04-01T05:43:48;52.45;;;17.73;;
67798;SDS011;54596;43.216;27.904;2023-04-01T05:46:13;55.38;;;16.88;;
67798;SDS011;54596;43.216;27.904;2023-04-01T05:48:39;52.90;;;17.27;;
67798;SDS011;54596;43.216;27.904;2023-04-01T05:51:04;46.35;;;16.00;;
67798;SDS011;54596;43.216;27.904;2023-04-01T05:53:30;51.30;;;20.73;;
67798;SDS011;54596;43.216;27.904;2023-04-01T05:55:56;30.60;;;11.70;;
67798;SDS011;54596;43.216;27.904;2023-04-01T05:58:22;29.05;;;9.73;;
67798;SDS011;54596;43.216;27.904;2023-04-01T06:00:47;1542.20;;;152.25;;
67798;SDS011;54596;43.216;27.904;2023-04-01T06:03:13;25.20;;;8.85;;
67798;SDS011;54596;43.216;27.904;2023-04-01T06:05:40;15.88;;;6.15;;
67798;SDS011;54596;43.216;27.904;2023-04-01T06:08:12;29.77;;;8.40;;
67798;SDS011;54596;43.216;27.904;2023-04-01T06:13:32;18.48;;;6.90;;
67798;SDS011;54596;43.216;27.904;2023-04-01T06:18:58;27.00;;;6.88;;
67798;SDS011;54596;43.216;27.904;2023-04-01T06:31:38;19.55;;;6.57;;
67798;SDS011;54596;43.216;27.904;2023-04-01T06:56:43;16.35;;;6.65;;
67798;SDS011;54596;43.216;27.904;2023-04-01T07:04:39;13.68;;;6.20;;
67798;SDS011;54596;43.216;27.904;2023-04-01T07:07:11;17.67;;;6.22;;
67798;SDS011;54596;43.216;27.904;2023-04-01T07:09:41;18.27;;;6.25;;
67798;SDS011;54596;43.216;27.904;2023-04-01T07:12:15;18.45;;;6.50;;
67798;SDS011;54596;43.216;27.904;2023-04-01T07:14:47;15.00;;;5.93;;
67798;SDS011;54596;43.216;27.904;2023-04-01T07:17:16;17.67;;;6.10;;
67798;SDS011;54596;43.216;27.904;2023-04-01T07:20:03;14.30;;;6.03;;
67798;SDS011;54596;43.216;27.904;2023-04-01T07:22:40;18.45;;;6.03;;
67798;SDS011;54596;43.216;27.904;2023-04-01T07:25:13;20.50;;;6.20;;
67798;SDS011;54596;43.216;27.904;2023-04-01T07:27:46;17.80;;;6.38;;
67798;SDS011;54596;43.216;27.904;2023-04-01T07:30:19;19.75;;;6.25;;
67798;SDS011;54596;43.216;27.904;2023-04-01T07:32:58;13.07;;;5.22;;
67798;SDS011;54596;43.216;27.904;2023-04-01T07:35:37;15.02;;;5.70;;
67798;SDS011;54596;43.216;27.904;2023-04-01T07:38:13;16.55;;;6.40;;
67798;SDS011;54596;43.216;27.904;2023-04-01T07:49:12;16.85;;;5.63;;
67798;SDS011;54596;43.216;27.904;2023-04-01T07:54:43;19.10;;;5.85;;
67798;SDS011;54596;43.216;27.904;2023-04-01T07:57:35;18.60;;;6.55;;
67798;SDS011;54596;43.216;27.904;2023-04-01T08:00:19;17.42;;;5.50;;
67798;SDS011;54596;43.216;27.904;2023-04-01T08:05:41;19.27;;;6.50;;
67798;SDS011;54596;43.216;27.904;2023-04-01T08:16:18;15.70;;;5.10;;
67798;SDS011;54596;43.216;27.904;2023-04-01T08:18:54;21.95;;;5.80;;
67798;SDS011;54596;43.216;27.904;2023-04-01T08:21:43;18.20;;;5.80;;
67798;SDS011;54596;43.216;27.904;2023-04-01T08:24:54;16.13;;;5.85;;
67798;SDS011;54596;43.216;27.904;2023-04-01T08:29:53;16.23;;;6.70;;
67798;SDS011;54596;43.216;27.904;2023-04-01T08:32:31;18.73;;;6.80;;
67798;SDS011;54596;43.216;27.904;2023-04-01T08:35:14;19.95;;;6.95;;
67798;SDS011;54596;43.216;27.904;2023-04-01T08:37:47;14.68;;;5.85;;
67798;SDS011;54596;43.216;27.904;2023-04-01T09:01:58;14.25;;;5.50;;
67798;SDS011;54596;43.216;27.904;2023-04-01T09:08:05;17.85;;;7.00;;
67798;SDS011;54596;43.216;27.904;2023-04-01T09:50:31;21.90;;;7.07;;
67798;SDS011;54596;43.216;27.904;2023-04-01T10:01:34;20.23;;;7.10;;
67798;SDS011;54596;43.216;27.904;2023-04-01T10:44:03;21.77;;;6.80;;
67798;SDS011;54596;43.216;27.904;2023-04-01T10:49:54;24.83;;;7.50;;
67798;SDS011;54596;43.216;27.904;2023-04-01T11:12:26;19.13;;;7.57;;
67798;SDS011;54596;43.216;27.904;2023-04-01T11:15:26;24.80;;;10.65;;
67798;SDS011;54596;43.216;27.904;2023-04-01T11:26:06;21.17;;;8.15;;
67798;SDS011;54596;43.216;27.904;2023-04-01T11:39:25;18.70;;;6.78;;
67798;SDS011;54596;43.216;27.904;2023-04-01T11:45:35;20.17;;;7.47;;
67798;SDS011;54596;43.216;27.904;2023-04-01T12:04:51;26.10;;;6.75;;
67798;SDS011;54596;43.216;27.904;2023-04-01T12:18:17;18.52;;;6.10;;
67798;SDS011;54596;43.216;27.904;2023-04-01T12:29:42;19.83;;;6.72;;
67798;SDS011;54596;43.216;27.904;2023-04-01T12:35:37;15.75;;;5.78;;
67798;SDS011;54596;43.216;27.904;2023-04-01T12:38:51;21.05;;;6.28;;
67798;SDS011;54596;43.216;27.904;2023-04-01T12:44:13;20.55;;;6.88;;
67798;SDS011;54596;43.216;27.904;2023-04-01T12:52:44;16.63;;;6.65;;
67798;SDS011;54596;43.216;27.904;2023-04-01T12:55:29;17.67;;;7.05;;
67798;SDS011;54596;43.216;27.904;2023-04-01T12:58:21;20.50;;;7.57;;
67798;SDS011;54596;43.216;27.904;2023-04-01T13:01:23;22.38;;;7.75;;
67798;SDS011;54596;43.216;27.904;2023-04-01T13:28:20;24.67;;;9.40;;
67798;SDS011;54596;43.216;27.904;2023-04-01T13:37:09;25.05;;;8.65;;
67798;SDS011;54596;43.216;27.904;2023-04-01T13:42:22;24.43;;;9.33;;
67798;SDS011;54596;43.216;27.904;2023-04-01T13:44:56;24.55;;;9.23;;
67798;SDS011;54596;43.216;27.904;2023-04-01T13:53:14;25.10;;;9.15;;
67798;SDS011;54596;43.216;27.904;2023-04-01T13:58:50;22.80;;;8.85;;
67798;SDS011;54596;43.216;27.904;2023-04-01T14:06:58;24.27;;;6.80;;
67798;SDS011;54596;43.216;27.904;2023-04-01T14:09:44;19.27;;;6.38;;
67798;SDS011;54596;43.216;27.904;2023-04-01T14:12:29;19.75;;;6.05;;
67798;SDS011;54596;43.216;27.904;2023-04-01T14:20:28;22.80;;;7.33;;
67798;SDS011;54596;43.216;27.904;2023-04-01T14:34:39;21.85;;;7.20;;
67798;SDS011;54596;43.216;27.904;2023-04-01T14:47:53;23.08;;;6.70;;
67798;SDS011;54596;43.216;27.904;2023-04-01T14:50:24;22.77;;;7.10;;
67798;SDS011;54596;43.216;27.904;2023-04-01T14:56:00;18.88;;;6.38;;
67798;SDS011;54596;43.216;27.904;2023-04-01T14:58:40;20.08;;;6.93;;
67798;SDS011;54596;43.216;27.904;2023-04-01T15:17:55;23.33;;;6.82;;
67798;SDS011;54596;43.216;27.904;2023-04-01T15:23:19;18.95;;;6.63;;
67798;SDS011;54596;43.216;27.904;2023-04-01T15:25:55;26.58;;;6.88;;
67798;SDS011;54596;43.216;27.904;2023-04-01T15:48:13;24.23;;;6.80;;
67798;SDS011;54596;43.216;27.904;2023-04-01T15:53:56;19.27;;;6.57;;
67798;SDS011;54596;43.216;27.904;2023-04-01T16:13:02;22.38;;;8.05;;
67798;SDS011;54596;43.216;27.904;2023-04-01T16:18:29;33.78;;;9.55;;
67798;SDS011;54596;43.216;27.904;2023-04-01T16:21:07;33.72;;;11.60;;
67798;SDS011;54596;43.216;27.904;2023-04-01T16:23:39;27.83;;;8.85;;
67798;SDS011;54596;43.216;27.904;2023-04-01T16:26:26;27.98;;;12.23;;
67798;SDS011;54596;43.216;27.904;2023-04-01T16:28:54;24.13;;;9.70;;
67798;SDS011;54596;43.216;27.904;2023-04-01T16:36:54;30.27;;;11.63;;
67798;SDS011;54596;43.216;27.904;2023-04-01T16:42:34;28.73;;;11.57;;
67798;SDS011;54596;43.216;27.904;2023-04-01T16:45:15;27.23;;;9.63;;
67798;SDS011;54596;43.216;27.904;2023-04-01T16:47:58;28.08;;;9.32;;
67798;SDS011;54596;43.216;27.904;2023-04-01T16:50:39;28.05;;;9.52;;
67798;SDS011;54596;43.216;27.904;2023-04-01T16:53:17;25.73;;;10.95;;
67798;SDS011;54596;43.216;27.904;2023-04-01T16:55:52;25.98;;;9.88;;
67798;SDS011;54596;43.216;27.904;2023-04-01T16:58:54;29.98;;;10.00;;
67798;SDS011;54596;43.216;27.904;2023-04-01T17:01:27;25.23;;;9.40;;
67798;SDS011;54596;43.216;27.904;2023-04-01T17:06:53;33.78;;;9.70;;
67798;SDS011;54596;43.216;27.904;2023-04-01T17:12:47;30.88;;;9.57;;
67798;SDS011;54596;43.216;27.904;2023-04-01T17:23:43;29.42;;;12.05;;
67798;SDS011;54596;43.216;27.904;2023-04-01T17:42:37;25.10;;;8.95;;
67798;SDS011;54596;43.216;27.904;2023-04-01T17:45:11;25.15;;;8.75;;
67798;SDS011;54596;43.216;27.904;2023-04-01T17:50:52;23.88;;;8.35;;
67798;SDS011;54596;43.216;27.904;2023-04-01T17:58:58;24.10;;;8.55;;
67798;SDS011;54596;43.216;27.904;2023-04-01T18:04:31;23.40;;;9.30;;
67798;SDS011;54596;43.216;27.904;2023-04-01T18:07:30;26.65;;;8.55;;
67798;SDS011;54596;43.216;27.904;2023-04-01T18:16:26;22.35;;;7.35;;
67798;SDS011;54596;43.216;27.904;2023-04-01T18:19:08;71.07;;;51.13;;
67798;SDS011;54596;43.216;27.904;2023-04-01T18:21:54;26.55;;;8.10;;
67798;SDS011;54596;43.216;27.904;2023-04-01T18:24:36;23.83;;;7.68;;
67798;SDS011;54596;43.216;27.904;2023-04-01T18:27:29;26.60;;;8.00;;
67798;SDS011;54596;43.216;27.904;2023-04-01T18:38:12;27.33;;;8.75;;
67798;SDS011;54596;43.216;27.904;2023-04-01T18:40:45;25.80;;;11.18;;
67798;SDS011;54596;43.216;27.904;2023-04-01T18:49:29;46.30;;;27.92;;
67798;SDS011;54596;43.216;27.904;2023-04-01T18:52:19;41.85;;;25.23;;
67798;SDS011;54596;43.216;27.904;2023-04-01T18:57:15;28.50;;;11.50;;
67798;SDS011;54596;43.216;27.904;2023-04-01T18:59:45;24.25;;;10.60;;
67798;SDS011;54596;43.216;27.904;2023-04-01T19:02:23;22.90;;;11.00;;
67798;SDS011;54596;43.216;27.904;2023-04-01T19:05:02;15.75;;;7.57;;
67798;SDS011;54596;43.216;27.904;2023-04-01T19:12:59;12.35;;;6.35;;
67798;SDS011;54596;43.216;27.904;2023-04-01T19:26:05;11.18;;;5.82;;
67798;SDS011;54596;43.216;27.904;2023-04-01T19:37:40;22.05;;;15.85;;
67798;SDS011;54596;43.216;27.904;2023-04-01T19:50:42;16.43;;;9.93;;
67798;SDS011;54596;43.216;27.904;2023-04-01T19:56:20;13.52;;;7.80;;
67798;SDS011;54596;43.216;27.904;2023-04-01T19:59:13;12.68;;;7.32;;
67798;SDS011;54596;43.216;27.904;2023-04-01T20:04:49;12.07;;;5.60;;
67798;SDS011;54596;43.216;27.904;2023-04-01T20:18:19;11.90;;;4.88;;
67798;SDS011;54596;43.216;27.904;2023-04-01T20:20:53;10.50;;;4.53;;
67798;SDS011;54596;43.216;27.904;2023-04-01T20:23:30;10.32;;;4.10;;
67798;SDS011;54596;43.216;27.904;2023-04-01T20:26:08;10.07;;;3.92;;
67798;SDS011;54596;43.216;27.904;2023-04-01T20:28:41;9.75;;;3.80;;
67798;SDS011;54596;43.216;27.904;2023-04-01T20:31:27;9.45;;;3.50;;
67798;SDS011;54596;43.216;27.904;2023-04-01T20:40:29;16.00;;;8.55;;
67798;SDS011;54596;43.216;27.904;2023-04-01T21:00:36;13.43;;;8.18;;
67798;SDS011;54596;43.216;27.904;2023-04-01T21:03:06;16.13;;;9.85;;
67798;SDS011;54596;43.216;27.904;2023-04-01T21:05:55;12.02;;;5.43;;
67798;SDS011;54596;43.216;27.904;2023-04-01T21:11:22;9.90;;;5.28;;
67798;SDS011;54596;43.216;27.904;2023-04-01T21:14:27;9.95;;;5.63;;
67798;SDS011;54596;43.216;27.904;2023-04-01T21:32:52;18.92;;;12.13;;
67798;SDS011;54596;43.216;27.904;2023-04-01T21:35:49;15.77;;;11.20;;
67798;SDS011;54596;43.216;27.904;2023-04-01T21:41:11;18.48;;;12.05;;
67798;SDS011;54596;43.216;27.904;2023-04-01T21:44:02;17.15;;;11.07;;
67798;SDS011;54596;43.216;27.904;2023-04-01T21:50:33;13.57;;;9.90;;
67798;SDS011;54596;43.216;27.904;2023-04-01T21:53:42;15.50;;;10.18;;
67798;SDS011;54596;43.216;27.904;2023-04-01T22:13:32;16.63;;;11.40;;
67798;SDS011;54596;43.216;27.904;2023-04-01T22:16:35;16.98;;;11.23;;
67798;SDS011;54596;43.216;27.904;2023-04-01T22:19:33;14.80;;;10.93;;
67798;SDS011;54596;43.216;27.904;2023-04-01T22:27:27;18.75;;;11.80;;
67798;SDS011;54596;43.216;27.904;2023-04-01T22:30:50;17.52;;;12.52;;
67798;SDS011;54596;43.216;27.904;2023-04-01T22:37:07;17.45;;;12.25;;
67798;SDS011;54596;43.216;27.904;2023-04-01T22:43:55;17.58;;;12.07;;
67798;SDS011;54596;43.216;27.904;2023-04-01T22:49:10;17.23;;;12.85;;
67798;SDS011;54596;43.216;27.904;2023-04-01T22:51:51;17.02;;;12.80;;
67798;SDS011;54596;43.216;27.904;2023-04-01T22:54:23;18.38;;;13.13;;
67798;SDS011;54596;43.216;27.904;2023-04-01T23:02:46;17.08;;;12.50;;
67798;SDS011;54596;43.216;27.904;2023-04-01T23:05:27;15.30;;;12.02;;
67798;SDS011;54596;43.216;27.904;2023-04-01T23:10:59;24.88;;;17.02;;
67798;SDS011;54596;43.216;27.904;2023-04-01T23:13:29;18.38;;;13.00;;
67798;SDS011;54596;43.216;27.904;2023-04-01T23:16:04;12.02;;;8.27;;
67798;SDS011;54596;43.216;27.904;2023-04-01T23:26:36;9.93;;;4.60;;
67798;SDS011;54596;43.216;27.904;2023-04-01T23:29:13;9.52;;;4.43;;
67798;SDS011;54596;43.216;27.904;2023-04-01T23:31:41;6.63;;;3.30;;
67798;SDS011;54596;43.216;27.904;2023-04-01T23:36:43;7.38;;;2.70;;
67798;SDS011;54596;43.216;27.904;2023-04-01T23:42:38;3.53;;;1.88;;
67798;SDS011;54596;43.216;27.904;2023-04-01T23:45:11;5.88;;;1.80;;
67798;SDS011;54596;43.216;27.904;2023-04-01T23:47:42;3.25;;;1.73;;
67798;SDS011;54596;43.216;27.904;2023-04-01T23:50:16;3.47;;;1.70;;
67798;SDS011;54596;43.216;27.904;2023-04-01T23:52:51;2.15;;;1.50;;
67798;SDS011;54596;43.216;27.904;2023-04-01T23:55:25;2.88;;;1.60;;
